Time;durP1;ratioP1;P1;durP2;ratioP2;P2;SDS_P1;SDS_P2;PMS_P1;PMS_P2;Temp;Humidity;BMP_temperature;BMP_pressure;BME280_temperature;BME280_humidity;BME280_pressure;Samples;Min_cycle;Max_cycle;Signal;HPM_P1;HPM_P2
2023/09/23 00:02:14;;;;;;;0.22;0.20;;;21.00;67.70;;;;;;5065148;28;20044;-88
2023/09/23 00:04:39;;;;;;;0.10;0.10;;;21.00;67.80;;;;;;5056903;28;20048;-88
2023/09/23 00:07:05;;;;;;;0.20;0.15;;;21.00;67.80;;;;;;5062096;28;20036;-89
2023/09/23 00:09:31;;;;;;;0.20;0.20;;;21.00;67.60;;;;;;5064112;28;20115;-89
2023/09/23 00:11:57;;;;;;;0.20;0.15;;;21.00;67.70;;;;;;5049680;28;20053;-89
2023/09/23 00:14:22;;;;;;;0.40;0.40;;;21.00;67.70;;;;;;5057808;28;20728;-88
2023/09/23 00:16:48;;;;;;;0.17;0.17;;;21.00;67.60;;;;;;5065489;28;20047;-88
2023/09/23 00:19:15;;;;;;;0.20;0.20;;;21.00;67.60;;;;;;5062728;28;20573;-90
2023/09/23 00:21:41;;;;;;;0.10;0.10;;;21.00;67.70;;;;;;5050431;28;20071;-89
2023/09/23 00:24:08;;;;;;;0.15;0.15;;;20.90;67.60;;;;;;5064019;28;20510;-88
2023/09/23 00:26:35;;;;;;;0.22;0.10;;;21.00;67.60;;;;;;5063113;28;20070;-86
2023/09/23 00:29:01;;;;;;;0.30;0.20;;;20.90;67.60;;;;;;5062294;28;21081;-88
2023/09/23 00:31:26;;;;;;;0.45;0.20;;;20.90;67.60;;;;;;5061767;28;20510;-89
2023/09/23 00:33:52;;;;;;;0.40;0.35;;;20.90;67.60;;;;;;5054431;28;20057;-89
2023/09/23 00:36:19;;;;;;;0.20;0.20;;;20.90;67.50;;;;;;5041725;28;20052;-89
2023/09/23 00:38:45;;;;;;;0.30;0.30;;;20.90;67.60;;;;;;5064003;28;20044;-89
2023/09/23 00:41:12;;;;;;;0.28;0.20;;;20.90;67.50;;;;;;5090014;28;20078;-89
2023/09/23 00:43:38;;;;;;;0.43;0.20;;;20.90;67.60;;;;;;5048614;28;20578;-90
2023/09/23 00:46:05;;;;;;;0.20;0.20;;;20.90;67.60;;;;;;5065004;28;20194;-89
2023/09/23 00:48:42;;;;;;;0.25;0.20;;;20.90;67.60;;;;;;5053860;28;20290;-87
2023/09/23 00:51:08;;;;;;;0.20;0.13;;;20.90;67.60;;;;;;5061650;28;20073;-90
2023/09/23 00:53:35;;;;;;;0.30;0.28;;;20.90;67.60;;;;;;5049101;28;20118;-89
2023/09/23 00:56:00;;;;;;;0.55;0.30;;;20.90;67.50;;;;;;5065420;28;20055;-89
2023/09/23 00:58:26;;;;;;;0.43;0.20;;;20.90;67.60;;;;;;5063760;28;20041;-89
2023/09/23 01:00:54;;;;;;;0.40;0.20;;;20.90;67.60;;;;;;5058531;28;20056;-89
2023/09/23 01:03:20;;;;;;;0.20;0.20;;;20.90;67.40;;;;;;5060417;28;20047;-88
2023/09/23 01:05:46;;;;;;;0.30;0.30;;;20.90;67.40;;;;;;5061565;28;20048;-90
2023/09/23 01:08:18;;;;;;;0.10;0.10;;;20.90;67.30;;;;;;5062557;28;20115;-90
2023/09/23 01:10:43;;;;;;;0.45;0.30;;;20.90;67.50;;;;;;5060706;28;20052;-89
2023/09/23 01:13:19;;;;;;;0.20;0.10;;;20.90;67.30;;;;;;5064460;28;20045;-90
2023/09/23 01:15:46;;;;;;;0.30;0.30;;;20.90;67.30;;;;;;5061268;28;20036;-88
2023/09/23 01:18:24;;;;;;;0.20;0.10;;;20.90;67.40;;;;;;5062047;28;20481;-88
2023/09/23 01:20:55;;;;;;;0.30;0.30;;;20.90;67.40;;;;;;5059010;28;20049;-88
2023/09/23 01:23:20;;;;;;;0.52;0.30;;;20.90;67.40;;;;;;5060483;28;20040;-88
2023/09/23 01:25:46;;;;;;;0.30;0.30;;;20.90;67.50;;;;;;5057888;28;20051;-89
2023/09/23 01:28:11;;;;;;;0.15;0.10;;;20.90;67.50;;;;;;5056439;28;20044;-90
2023/09/23 01:30:40;;;;;;;0.45;0.22;;;20.90;67.50;;;;;;5088066;28;20395;-89
2023/09/23 01:33:07;;;;;;;0.35;0.30;;;20.80;67.40;;;;;;5058409;28;20059;-89
2023/09/23 01:35:33;;;;;;;0.30;0.20;;;20.90;67.50;;;;;;5068073;28;20063;-91
2023/09/23 01:37:59;;;;;;;0.20;0.20;;;20.90;67.60;;;;;;5061592;28;20131;-91
2023/09/23 01:40:29;;;;;;;0.50;0.30;;;20.90;67.40;;;;;;5067149;28;20063;-90
2023/09/23 01:42:55;;;;;;;0.20;0.20;;;20.80;67.50;;;;;;5066294;28;20052;-90
2023/09/23 01:45:22;;;;;;;0.13;0.13;;;20.90;67.50;;;;;;5056354;28;20125;-91
2023/09/23 01:47:47;;;;;;;0.40;0.20;;;20.90;67.40;;;;;;5063019;28;20048;-91
2023/09/23 01:50:13;;;;;;;0.50;0.20;;;20.90;67.40;;;;;;5059867;28;20044;-91
2023/09/23 01:52:40;;;;;;;0.20;0.20;;;20.80;67.30;;;;;;5067730;28;20064;-89
2023/09/23 01:55:07;;;;;;;0.20;0.20;;;20.80;67.20;;;;;;5059730;28;20120;-92
2023/09/23 01:57:36;;;;;;;0.15;0.15;;;20.80;67.20;;;;;;5056632;28;20098;-93
2023/09/23 02:00:04;;;;;;;0.10;0.10;;;20.80;67.10;;;;;;5064185;28;20041;-92
2023/09/23 02:02:30;;;;;;;0.30;0.30;;;20.80;67.20;;;;;;5062165;28;20064;-92
2023/09/23 02:04:56;;;;;;;0.57;0.30;;;20.80;67.10;;;;;;5070402;28;20464;-92
2023/09/23 02:07:22;;;;;;;0.20;0.20;;;20.80;67.20;;;;;;5071060;28;20053;-92
2023/09/23 02:09:47;;;;;;;0.35;0.28;;;20.80;67.20;;;;;;5069651;28;20430;-92
2023/09/23 02:12:14;;;;;;;0.20;0.20;;;20.80;67.20;;;;;;5065649;28;20045;-92
2023/09/23 02:14:40;;;;;;;0.52;0.50;;;20.80;67.20;;;;;;5068666;28;20045;-92
2023/09/23 02:17:06;;;;;;;0.30;0.10;;;20.80;67.30;;;;;;5065617;28;20053;-92
2023/09/23 02:19:31;;;;;;;0.55;0.20;;;20.80;67.10;;;;;;5067101;28;20418;-91
2023/09/23 02:21:57;;;;;;;0.10;0.10;;;20.80;67.20;;;;;;5068010;28;20143;-91
2023/09/23 02:24:23;;;;;;;0.40;0.20;;;20.80;67.20;;;;;;5065110;28;20044;-92
2023/09/23 02:26:51;;;;;;;0.52;0.20;;;20.80;67.20;;;;;;5067233;28;20048;-91
2023/09/23 02:29:17;;;;;;;0.13;0.10;;;20.80;67.20;;;;;;5062900;28;20048;-92
2023/09/23 02:31:46;;;;;;;0.30;0.30;;;20.80;67.20;;;;;;5065550;28;20055;-90
2023/09/23 02:34:14;;;;;;;0.32;0.20;;;20.80;67.20;;;;;;5065305;28;20166;-92
2023/09/23 02:36:41;;;;;;;0.20;0.20;;;20.80;67.20;;;;;;5064794;28;20048;-91
2023/09/23 02:39:06;;;;;;;0.43;0.30;;;20.80;67.30;;;;;;5066230;28;20059;-92
2023/09/23 02:41:32;;;;;;;0.10;0.10;;;20.80;67.20;;;;;;5059278;28;20049;-92
2023/09/23 02:43:58;;;;;;;0.47;0.30;;;20.80;67.20;;;;;;5061021;28;20051;-92
2023/09/23 02:46:24;;;;;;;0.30;0.30;;;20.80;67.10;;;;;;5067229;28;20048;-91
2023/09/23 02:48:49;;;;;;;0.30;0.30;;;20.80;67.10;;;;;;5067828;28;20532;-91
2023/09/23 02:51:15;;;;;;;0.60;0.22;;;20.80;67.10;;;;;;5062861;28;20049;-91
2023/09/23 02:53:40;;;;;;;0.40;0.10;;;20.80;67.20;;;;;;5062364;28;20530;-91
2023/09/23 02:56:07;;;;;;;0.45;0.30;;;20.80;67.20;;;;;;5067170;28;20049;-92
2023/09/23 02:58:32;;;;;;;0.20;0.10;;;20.80;67.20;;;;;;5064905;28;20040;-92
2023/09/23 03:01:01;;;;;;;0.20;0.20;;;20.80;67.10;;;;;;5061586;28;20060;-92
2023/09/23 03:03:27;;;;;;;0.28;0.20;;;20.80;67.10;;;;;;5072840;28;20045;-91
2023/09/23 03:05:57;;;;;;;0.30;0.20;;;20.80;67.20;;;;;;5065211;28;20567;-91
2023/09/23 03:08:26;;;;;;;0.70;0.40;;;20.80;67.10;;;;;;5069645;28;20047;-92
2023/09/23 03:10:54;;;;;;;0.30;0.30;;;20.80;67.10;;;;;;5066714;28;20046;-92
2023/09/23 03:13:21;;;;;;;0.30;0.30;;;20.80;67.10;;;;;;5082450;28;20133;-92
2023/09/23 03:15:52;;;;;;;0.20;0.20;;;20.80;67.10;;;;;;5065142;28;20037;-91
2023/09/23 03:18:33;;;;;;;0.20;0.20;;;20.80;67.10;;;;;;5065248;28;20044;-91
2023/09/23 03:21:08;;;;;;;0.35;0.30;;;20.80;67.10;;;;;;5064036;28;20448;-91
2023/09/23 03:23:39;;;;;;;0.30;0.30;;;20.80;67.10;;;;;;5067662;28;20041;-91
2023/09/23 03:26:06;;;;;;;0.20;0.20;;;20.80;67.90;;;;;;5062853;28;20052;-91
2023/09/23 03:28:33;;;;;;;0.40;0.30;;;20.80;67.10;;;;;;5062350;28;20106;-90
2023/09/23 03:30:59;;;;;;;0.47;0.20;;;20.80;67.10;;;;;;5064062;28;20048;-91
2023/09/23 03:33:25;;;;;;;0.30;0.20;;;20.80;67.00;;;;;;5063185;28;20040;-90
2023/09/23 03:35:51;;;;;;;1.40;0.40;;;20.80;66.90;;;;;;5060039;28;20052;-91
2023/09/23 03:38:16;;;;;;;0.15;0.13;;;20.80;66.90;;;;;;5063716;28;20133;-89
2023/09/23 03:40:52;;;;;;;0.68;0.30;;;20.70;66.90;;;;;;5060715;28;20722;-91
2023/09/23 03:43:18;;;;;;;0.50;0.50;;;20.70;66.90;;;;;;5052554;28;20045;-91
2023/09/23 03:45:44;;;;;;;0.20;0.20;;;20.70;66.90;;;;;;5064985;28;20132;-91
2023/09/23 03:48:12;;;;;;;0.32;0.20;;;20.70;66.90;;;;;;5068298;28;20596;-92
2023/09/23 03:50:38;;;;;;;0.63;0.32;;;20.70;66.90;;;;;;5052391;28;20040;-91
2023/09/23 03:53:03;;;;;;;0.30;0.20;;;20.80;66.90;;;;;;5060759;28;20460;-91
2023/09/23 03:55:29;;;;;;;0.60;0.30;;;20.70;66.90;;;;;;5065887;28;20494;-92
2023/09/23 03:57:56;;;;;;;0.40;0.30;;;20.70;66.90;;;;;;5060748;28;20640;-91
2023/09/23 04:00:21;;;;;;;0.30;0.20;;;20.70;66.90;;;;;;5063875;28;20141;-92
2023/09/23 04:02:47;;;;;;;1.75;0.30;;;20.70;66.90;;;;;;5056147;28;20128;-92
2023/09/23 04:05:14;;;;;;;1.73;0.45;;;20.70;66.90;;;;;;5066258;28;20210;-92
2023/09/23 04:07:41;;;;;;;0.30;0.28;;;20.70;66.90;;;;;;5063090;28;20802;-92
2023/09/23 04:10:08;;;;;;;0.30;0.30;;;20.70;66.90;;;;;;5059505;28;20063;-92
2023/09/23 04:12:34;;;;;;;0.45;0.30;;;20.70;66.80;;;;;;5063974;28;20036;-92
2023/09/23 04:14:59;;;;;;;0.40;0.40;;;20.70;66.80;;;;;;5067257;28;20045;-91
2023/09/23 04:17:26;;;;;;;0.30;0.20;;;20.70;66.80;;;;;;5064787;28;20071;-92
2023/09/23 04:19:53;;;;;;;0.30;0.30;;;20.70;66.80;;;;;;5061462;28;20053;-93
2023/09/23 04:22:18;;;;;;;0.30;0.17;;;20.70;66.70;;;;;;5058422;28;20040;-90
2023/09/23 04:24:44;;;;;;;0.30;0.30;;;20.70;66.70;;;;;;5065526;28;20040;-91
2023/09/23 04:27:10;;;;;;;0.38;0.32;;;20.70;66.70;;;;;;5067219;28;20118;-91
2023/09/23 04:29:36;;;;;;;0.50;0.30;;;20.70;66.70;;;;;;5066852;28;20040;-92
2023/09/23 04:32:03;;;;;;;0.20;0.20;;;20.70;66.70;;;;;;5063330;28;20045;-92
2023/09/23 04:34:29;;;;;;;0.30;0.30;;;20.70;66.70;;;;;;5065917;28;20051;-92
2023/09/23 04:36:56;;;;;;;0.30;0.25;;;20.70;66.60;;;;;;5062600;28;20040;-91
2023/09/23 04:39:22;;;;;;;0.20;0.20;;;20.70;66.50;;;;;;5064804;28;20061;-91
2023/09/23 04:41:47;;;;;;;1.48;0.30;;;20.70;66.50;;;;;;5063291;28;20176;-92
2023/09/23 04:44:13;;;;;;;0.45;0.20;;;20.70;66.50;;;;;;5062584;28;20037;-91
2023/09/23 04:46:39;;;;;;;0.32;0.32;;;20.70;66.60;;;;;;5067593;28;20123;-92
2023/09/23 04:49:04;;;;;;;0.35;0.30;;;20.60;66.50;;;;;;5064621;28;20048;-91
2023/09/23 04:51:30;;;;;;;0.20;0.20;;;20.60;66.50;;;;;;5065756;28;20064;-91
2023/09/23 04:53:56;;;;;;;0.45;0.43;;;20.60;66.50;;;;;;5084631;28;20048;-91
2023/09/23 04:56:21;;;;;;;0.30;0.25;;;20.60;66.50;;;;;;5067176;28;20401;-92
2023/09/23 04:58:47;;;;;;;0.73;0.30;;;20.60;66.50;;;;;;5040431;28;20045;-92
2023/09/23 05:01:15;;;;;;;0.43;0.30;;;20.60;66.50;;;;;;5051389;28;20053;-91
2023/09/23 05:03:42;;;;;;;0.45;0.30;;;20.60;66.40;;;;;;5053415;28;20671;-91
2023/09/23 05:06:09;;;;;;;0.40;0.40;;;20.60;66.40;;;;;;5050322;28;20498;-90
2023/09/23 05:08:35;;;;;;;0.52;0.20;;;20.60;66.40;;;;;;5051543;28;20186;-90
2023/09/23 05:11:02;;;;;;;0.28;0.20;;;20.60;66.40;;;;;;5052532;28;20053;-90
2023/09/23 05:13:28;;;;;;;0.68;0.20;;;20.60;66.40;;;;;;5050881;28;20537;-91
2023/09/23 05:15:54;;;;;;;0.38;0.38;;;20.70;66.40;;;;;;5052459;28;20083;-90
2023/09/23 05:18:20;;;;;;;0.35;0.35;;;20.60;66.40;;;;;;5053742;28;20131;-90
2023/09/23 05:20:47;;;;;;;0.40;0.30;;;20.60;66.50;;;;;;5051285;28;20080;-90
2023/09/23 05:23:13;;;;;;;0.40;0.32;;;20.60;66.40;;;;;;5051583;28;20103;-89
2023/09/23 05:25:41;;;;;;;0.47;0.30;;;20.60;66.30;;;;;;5048978;28;20812;-90
2023/09/23 05:28:06;;;;;;;0.45;0.40;;;20.60;66.30;;;;;;5049876;28;20417;-90
2023/09/23 05:30:32;;;;;;;0.30;0.30;;;20.60;66.30;;;;;;5053524;28;20055;-90
2023/09/23 05:32:57;;;;;;;0.40;0.40;;;20.60;66.30;;;;;;5049201;28;20484;-90
2023/09/23 05:35:24;;;;;;;0.55;0.30;;;20.60;66.30;;;;;;5054141;28;20053;-90
2023/09/23 05:37:51;;;;;;;0.52;0.40;;;20.60;66.20;;;;;;5065854;28;20572;-90
2023/09/23 05:42:51;;;;;;;0.90;0.40;;;20.60;66.30;;;;;;5057796;28;20060;-88
2023/09/23 05:45:23;;;;;;;0.47;0.30;;;20.60;66.30;;;;;;5048549;28;20041;-89
2023/09/23 05:47:48;;;;;;;0.30;0.30;;;20.60;66.30;;;;;;5065307;28;20037;-83
2023/09/23 05:50:15;;;;;;;0.55;0.28;;;20.60;66.30;;;;;;5068130;28;20565;-93
2023/09/23 05:52:40;;;;;;;0.30;0.30;;;20.60;66.30;;;;;;5060854;28;20569;-90
2023/09/23 05:55:07;;;;;;;0.35;0.20;;;20.60;66.30;;;;;;5062688;28;20463;-90
2023/09/23 05:57:34;;;;;;;1.52;0.47;;;20.50;65.60;;;;;;5065791;28;20474;-85
2023/09/23 06:00:00;;;;;;;1.13;0.68;;;20.50;63.60;;;;;;5062171;28;20036;-87
2023/09/23 06:02:26;;;;;;;2.60;1.13;;;20.20;59.60;;;;;;5061649;28;20041;-87
2023/09/23 06:04:52;;;;;;;1.45;0.77;;;19.90;58.70;;;;;;5064330;28;20033;-84
2023/09/23 06:07:18;;;;;;;1.77;1.25;;;19.80;57.70;;;;;;5049003;28;20502;-84
2023/09/23 06:09:44;;;;;;;1.85;1.20;;;19.50;58.10;;;;;;5068031;28;20403;-87
2023/09/23 06:12:10;;;;;;;2.75;1.02;;;19.30;59.00;;;;;;5051847;28;20534;-82
2023/09/23 06:14:35;;;;;;;2.10;1.20;;;19.30;58.20;;;;;;5062595;28;20169;-82
2023/09/23 06:17:01;;;;;;;2.63;1.10;;;19.10;58.20;;;;;;5052818;28;20642;-86
2023/09/23 06:19:27;;;;;;;2.65;1.30;;;18.90;58.40;;;;;;5045085;28;20113;-87
2023/09/23 06:21:54;;;;;;;3.15;1.40;;;18.90;58.70;;;;;;5046513;28;20056;-86
2023/09/23 06:24:20;;;;;;;1.83;1.10;;;19.00;58.20;;;;;;5048327;28;20063;-87
2023/09/23 06:26:45;;;;;;;1.40;1.02;;;18.90;58.60;;;;;;5061992;28;20044;-87
2023/09/23 06:29:14;;;;;;;1.27;0.80;;;18.70;58.70;;;;;;5060852;28;20101;-82
2023/09/23 06:31:40;;;;;;;1.73;0.90;;;18.60;58.70;;;;;;5062543;28;20037;-83
2023/09/23 06:34:06;;;;;;;1.70;1.30;;;18.70;59.40;;;;;;5061283;28;20131;-83
2023/09/23 06:36:32;;;;;;;2.28;1.17;;;18.60;58.70;;;;;;5058388;28;20101;-82
2023/09/23 06:38:57;;;;;;;2.85;1.30;;;18.50;58.80;;;;;;5063108;28;20096;-82
2023/09/23 06:41:23;;;;;;;1.58;1.05;;;18.50;59.00;;;;;;5062455;28;20067;-83
2023/09/23 06:43:48;;;;;;;1.60;0.98;;;18.40;59.00;;;;;;5057047;28;20109;-80
2023/09/23 06:46:14;;;;;;;3.20;1.10;;;18.50;59.30;;;;;;5059585;28;20052;-83
2023/09/23 06:48:40;;;;;;;1.33;0.90;;;18.40;59.20;;;;;;5067846;28;20171;-82
2023/09/23 06:51:05;;;;;;;2.78;1.05;;;18.30;59.10;;;;;;5062890;28;20048;-82
2023/09/23 06:53:31;;;;;;;1.50;1.08;;;18.30;59.60;;;;;;5058368;28;20052;-80
2023/09/23 06:55:57;;;;;;;3.10;1.30;;;18.30;59.50;;;;;;5063017;28;20125;-80
2023/09/23 06:58:23;;;;;;;2.63;1.02;;;18.50;59.50;;;;;;5060756;28;20044;-81
2023/09/23 07:00:49;;;;;;;1.75;1.00;;;18.50;59.30;;;;;;5060755;28;20044;-80
2023/09/23 07:03:14;;;;;;;2.03;1.17;;;18.40;59.60;;;;;;5059769;28;20044;-80
2023/09/23 07:05:41;;;;;;;1.88;1.27;;;18.30;59.60;;;;;;5068939;28;20041;-81
2023/09/23 07:08:07;;;;;;;2.55;1.42;;;18.30;59.70;;;;;;5060418;28;20533;-81
2023/09/23 07:10:36;;;;;;;1.55;0.98;;;18.10;59.80;;;;;;5058763;28;20041;-80
2023/09/23 07:13:05;;;;;;;1.63;1.10;;;18.20;60.00;;;;;;5062217;28;20064;-80
2023/09/23 07:15:35;;;;;;;2.38;1.10;;;18.10;60.00;;;;;;5061689;28;20071;-81
2023/09/23 07:18:01;;;;;;;3.53;1.45;;;18.20;60.20;;;;;;5061475;28;20059;-81
2023/09/23 07:20:27;;;;;;;2.08;1.20;;;18.10;60.50;;;;;;5061104;28;20052;-82
2023/09/23 07:22:52;;;;;;;2.15;0.77;;;18.20;60.90;;;;;;5060152;28;20036;-79
2023/09/23 07:25:18;;;;;;;1.33;0.90;;;18.20;60.80;;;;;;5053525;28;20048;-83
2023/09/23 07:27:43;;;;;;;4.78;1.45;;;18.30;60.50;;;;;;5061926;28;20041;-80
2023/09/23 07:30:09;;;;;;;2.70;0.95;;;18.20;60.50;;;;;;5056866;28;20045;-80
2023/09/23 07:32:35;;;;;;;3.17;1.50;;;18.20;60.50;;;;;;5061522;28;20590;-80
2023/09/23 07:35:01;;;;;;;2.72;1.23;;;18.10;61.10;;;;;;5061885;28;20066;-80
2023/09/23 07:37:26;;;;;;;2.60;1.02;;;18.10;61.30;;;;;;5065014;28;20032;-81
2023/09/23 07:39:52;;;;;;;3.35;1.00;;;18.00;61.40;;;;;;5063447;28;20036;-81
2023/09/23 07:42:17;;;;;;;3.22;0.93;;;18.00;61.70;;;;;;5061591;28;20558;-80
2023/09/23 07:44:43;;;;;;;2.20;1.00;;;18.00;61.50;;;;;;5059811;28;20484;-81
2023/09/23 07:47:09;;;;;;;2.03;1.10;;;18.10;61.70;;;;;;5058409;28;20045;-80
2023/09/23 07:49:35;;;;;;;3.00;1.00;;;18.00;61.60;;;;;;5062444;28;20033;-81
2023/09/23 07:52:00;;;;;;;2.97;1.08;;;18.00;61.70;;;;;;5063393;28;20037;-80
2023/09/23 07:54:26;;;;;;;1.35;1.02;;;18.00;61.70;;;;;;5063094;28;20433;-81
2023/09/23 07:56:51;;;;;;;2.33;1.27;;;18.00;62.00;;;;;;5063443;28;20119;-80
2023/09/23 07:59:17;;;;;;;4.30;1.30;;;18.00;62.10;;;;;;5059538;28;20040;-81
2023/09/23 08:01:42;;;;;;;1.85;1.02;;;18.10;61.90;;;;;;5063629;28;20509;-81
2023/09/23 08:04:08;;;;;;;1.85;1.05;;;18.20;61.70;;;;;;5061204;28;20048;-80
2023/09/23 08:06:34;;;;;;;2.58;1.20;;;18.10;61.70;;;;;;5062305;28;20690;-81
2023/09/23 08:08:59;;;;;;;2.28;1.13;;;18.00;62.10;;;;;;5056990;28;20036;-81
2023/09/23 08:11:26;;;;;;;1.60;1.05;;;18.10;61.70;;;;;;5058092;28;20041;-81
2023/09/23 08:13:52;;;;;;;1.65;1.10;;;18.20;61.50;;;;;;5063311;28;20409;-81
2023/09/23 08:16:17;;;;;;;1.42;1.30;;;18.10;61.50;;;;;;5062024;28;20514;-81
2023/09/23 08:18:43;;;;;;;1.83;1.13;;;18.00;61.80;;;;;;5063576;28;20036;-80
2023/09/23 08:21:08;;;;;;;1.58;1.08;;;18.10;62.00;;;;;;5062255;28;20582;-82
2023/09/23 08:23:34;;;;;;;1.83;1.15;;;18.20;61.50;;;;;;5064908;28;20047;-82
2023/09/23 08:26:00;;;;;;;3.30;1.38;;;18.30;61.60;;;;;;5061916;28;20029;-79
2023/09/23 08:28:25;;;;;;;4.22;1.63;;;18.40;61.50;;;;;;5063433;28;20040;-82
2023/09/23 08:30:54;;;;;;;3.20;1.58;;;18.40;61.30;;;;;;5063431;28;20068;-81
2023/09/23 08:33:19;;;;;;;2.08;1.33;;;18.50;61.30;;;;;;5059838;28;20037;-82
2023/09/23 08:35:48;;;;;;;2.35;1.17;;;18.60;61.00;;;;;;5058063;28;20029;-80
2023/09/23 08:38:14;;;;;;;3.47;1.27;;;18.40;61.10;;;;;;5056460;28;20523;-82
2023/09/23 08:40:40;;;;;;;3.45;1.50;;;18.50;61.30;;;;;;5059982;28;20565;-82
2023/09/23 08:43:06;;;;;;;2.80;1.75;;;18.50;61.20;;;;;;5058952;28;20040;-81
2023/09/23 08:45:32;;;;;;;2.47;1.33;;;18.60;61.10;;;;;;5061375;28;20418;-82
2023/09/23 08:47:58;;;;;;;1.60;1.35;;;18.60;61.20;;;;;;5060680;28;20103;-83
2023/09/23 08:50:26;;;;;;;3.13;1.00;;;18.60;61.40;;;;;;5066005;28;20048;-82
2023/09/23 08:52:52;;;;;;;1.73;1.20;;;18.70;61.00;;;;;;5063627;28;20127;-82
2023/09/23 08:55:18;;;;;;;1.45;0.93;;;18.70;60.90;;;;;;5061991;28;20131;-82
2023/09/23 08:57:43;;;;;;;2.65;1.15;;;18.80;60.90;;;;;;5061297;28;20041;-82
2023/09/23 09:00:10;;;;;;;1.73;1.20;;;18.80;60.90;;;;;;5058962;28;20044;-84
2023/09/23 09:02:36;;;;;;;1.27;0.88;;;18.90;60.50;;;;;;5063839;28;20048;-83
2023/09/23 09:05:01;;;;;;;2.10;1.13;;;18.90;60.60;;;;;;5065012;28;20405;-82
2023/09/23 09:07:34;;;;;;;2.00;1.17;;;19.00;60.20;;;;;;5061134;28;20041;-84
2023/09/23 09:10:00;;;;;;;1.77;1.00;;;19.00;60.30;;;;;;5059957;28;20032;-84
2023/09/23 09:12:25;;;;;;;2.28;1.05;;;19.00;59.70;;;;;;5060710;28;20071;-83
2023/09/23 09:14:51;;;;;;;2.30;1.33;;;19.00;59.60;;;;;;5062269;28;20484;-84
2023/09/23 09:17:20;;;;;;;2.85;1.25;;;19.00;59.50;;;;;;5062070;28;20045;-81
2023/09/23 09:19:46;;;;;;;1.65;1.33;;;19.00;59.80;;;;;;5057752;28;20421;-83
2023/09/23 09:22:13;;;;;;;1.60;0.98;;;19.10;59.60;;;;;;5059341;28;20033;-81
2023/09/23 09:24:40;;;;;;;2.95;1.08;;;19.10;59.50;;;;;;5056317;28;20068;-83
2023/09/23 09:27:12;;;;;;;2.08;1.20;;;19.10;59.20;;;;;;5058355;28;20189;-83
2023/09/23 09:29:41;;;;;;;1.55;1.17;;;19.20;58.90;;;;;;5062227;28;20045;-82
2023/09/23 09:32:08;;;;;;;1.52;1.13;;;19.20;58.30;;;;;;5058755;28;20047;-81
2023/09/23 09:34:45;;;;;;;1.73;1.20;;;19.20;58.20;;;;;;5062852;28;20045;-83
2023/09/23 09:37:13;;;;;;;1.80;1.05;;;19.30;58.50;;;;;;5063453;28;20044;-84
2023/09/23 09:39:53;;;;;;;1.95;1.35;;;19.20;58.40;;;;;;5060470;28;20037;-84
2023/09/23 09:42:30;;;;;;;1.67;1.27;;;19.30;58.20;;;;;;5058895;28;20037;-83
2023/09/23 09:44:56;;;;;;;1.98;1.27;;;19.30;58.40;;;;;;5064092;28;20045;-83
2023/09/23 09:47:22;;;;;;;1.80;1.25;;;19.30;58.20;;;;;;5063864;28;20114;-84
2023/09/23 09:49:51;;;;;;;2.25;1.73;;;19.40;58.00;;;;;;5060858;28;20031;-83
2023/09/23 09:52:17;;;;;;;1.58;1.45;;;19.40;57.60;;;;;;5060060;28;20040;-83
2023/09/23 09:54:44;;;;;;;2.92;1.73;;;19.40;57.30;;;;;;5066435;28;20025;-84
2023/09/23 09:57:12;;;;;;;5.10;1.30;;;19.50;57.10;;;;;;5065408;28;20052;-82
2023/09/23 09:59:39;;;;;;;1.35;1.17;;;19.50;56.60;;;;;;5069160;28;20601;-83
2023/09/23 10:02:05;;;;;;;1.52;1.20;;;19.40;56.30;;;;;;5065613;28;20033;-83
2023/09/23 10:04:32;;;;;;;1.48;1.33;;;19.40;56.10;;;;;;5064292;28;20036;-82
2023/09/23 10:06:58;;;;;;;1.33;1.15;;;19.40;56.40;;;;;;5067855;28;20036;-81
2023/09/23 10:09:30;;;;;;;2.67;1.30;;;19.40;55.80;;;;;;5064790;28;20045;-82
2023/09/23 10:11:58;;;;;;;1.55;1.23;;;19.40;55.90;;;;;;5062890;28;20053;-80
2023/09/23 10:14:23;;;;;;;1.33;1.05;;;19.50;55.60;;;;;;5065197;28;20053;-84
2023/09/23 10:17:04;;;;;;;1.80;1.15;;;19.70;55.20;;;;;;5051062;28;20033;-84
2023/09/23 10:19:30;;;;;;;2.42;1.13;;;19.70;54.80;;;;;;5069293;28;20072;-81
2023/09/23 10:22:21;;;;;;;1.50;1.13;;;19.70;54.00;;;;;;5063982;28;20037;-82
2023/09/23 10:25:01;;;;;;;1.35;1.23;;;19.60;54.00;;;;;;5061137;28;20626;-82
2023/09/23 10:27:27;;;;;;;4.43;1.75;;;19.60;54.10;;;;;;5066197;28;20063;-84
2023/09/23 10:29:53;;;;;;;1.77;1.00;;;19.70;54.20;;;;;;5062644;28;20051;-86
2023/09/23 10:32:18;;;;;;;2.22;1.20;;;19.50;53.00;;;;;;5062996;28;20040;-83
2023/09/23 10:34:55;;;;;;;1.58;1.02;;;19.50;52.50;;;;;;5061298;28;20513;-83
2023/09/23 10:37:30;;;;;;;2.70;1.25;;;19.50;51.10;;;;;;5060646;28;20076;-81
2023/09/23 10:40:12;;;;;;;2.75;1.00;;;19.60;50.60;;;;;;5063391;28;20541;-82
2023/09/23 10:42:38;;;;;;;1.73;1.20;;;19.60;50.40;;;;;;5063179;28;20037;-82
2023/09/23 10:45:05;;;;;;;0.98;0.88;;;19.60;50.80;;;;;;4708407;28;10000576;-81
2023/09/23 10:47:31;;;;;;;1.30;1.20;;;19.70;50.30;;;;;;5058319;28;20045;-82
2023/09/23 10:49:56;;;;;;;1.17;1.08;;;19.70;50.30;;;;;;5042244;28;20053;-81
2023/09/23 10:52:22;;;;;;;1.75;1.02;;;19.70;50.40;;;;;;5057802;28;20040;-81
2023/09/23 10:54:48;;;;;;;2.17;1.05;;;19.80;50.20;;;;;;5063464;28;20115;-83
2023/09/23 10:57:14;;;;;;;1.25;0.90;;;19.80;49.20;;;;;;5060683;28;20075;-84
2023/09/23 10:59:39;;;;;;;1.25;0.95;;;19.80;49.00;;;;;;5062959;28;20037;-86
2023/09/23 11:02:05;;;;;;;0.85;0.85;;;19.80;48.00;;;;;;5047439;28;20044;-88
2023/09/23 11:04:33;;;;;;;0.90;0.90;;;19.80;48.00;;;;;;5061849;28;20056;-83
2023/09/23 11:06:59;;;;;;;1.40;0.95;;;19.90;48.30;;;;;;5059990;28;20044;-85
2023/09/23 11:09:25;;;;;;;1.27;0.80;;;19.90;48.30;;;;;;5052670;28;20041;-86
2023/09/23 11:11:51;;;;;;;1.38;1.00;;;19.90;48.40;;;;;;5042975;28;20056;-85
2023/09/23 11:14:17;;;;;;;1.15;1.02;;;19.90;48.60;;;;;;5057832;28;20519;-88
2023/09/23 11:16:44;;;;;;;1.13;0.90;;;19.80;48.60;;;;;;5057059;28;20521;-84
2023/09/23 11:19:09;;;;;;;2.20;1.40;;;19.90;49.20;;;;;;5054987;28;20048;-86
2023/09/23 11:21:46;;;;;;;1.25;1.00;;;19.90;49.00;;;;;;5057243;28;20048;-87
2023/09/23 11:24:12;;;;;;;1.35;1.00;;;19.90;49.60;;;;;;5070769;28;20127;-86
2023/09/23 11:26:41;;;;;;;2.00;1.17;;;19.90;50.00;;;;;;5043917;28;20087;-86
2023/09/23 11:29:07;;;;;;;2.40;1.00;;;20.00;49.30;;;;;;5054881;28;20049;-86
2023/09/23 11:31:32;;;;;;;0.55;0.55;;;20.00;49.60;;;;;;5056792;28;20475;-85
2023/09/23 11:33:58;;;;;;;0.95;0.80;;;19.90;49.60;;;;;;5030424;28;20395;-85
2023/09/23 11:36:24;;;;;;;1.20;1.10;;;19.90;49.90;;;;;;5053505;28;20135;-85
2023/09/23 11:38:49;;;;;;;1.73;1.08;;;20.00;49.90;;;;;;5055253;28;20036;-85
2023/09/23 11:41:16;;;;;;;1.30;1.10;;;20.00;49.30;;;;;;5056678;28;20568;-83
2023/09/23 11:43:41;;;;;;;1.38;1.10;;;20.00;49.10;;;;;;5057883;28;20044;-85
2023/09/23 11:46:07;;;;;;;1.55;0.80;;;20.00;49.40;;;;;;5042689;28;20068;-85
2023/09/23 11:48:35;;;;;;;1.20;1.10;;;20.00;49.30;;;;;;5057668;28;20832;-87
2023/09/23 11:51:01;;;;;;;1.00;0.90;;;20.10;49.10;;;;;;5058950;28;20529;-87
2023/09/23 11:53:26;;;;;;;1.40;1.30;;;20.00;48.80;;;;;;5035508;28;20518;-89
2023/09/23 11:55:52;;;;;;;1.58;0.90;;;20.10;50.10;;;;;;5053044;28;20045;-89
2023/09/23 11:58:19;;;;;;;1.15;1.00;;;20.00;50.50;;;;;;5056186;28;20037;-86
2023/09/23 12:00:47;;;;;;;1.00;0.90;;;20.10;49.80;;;;;;5058090;28;20446;-86
2023/09/23 12:03:14;;;;;;;1.08;0.98;;;20.10;49.60;;;;;;5055696;28;20073;-85
2023/09/23 12:05:41;;;;;;;1.08;0.98;;;20.20;50.20;;;;;;5056741;28;20032;-86
2023/09/23 12:08:09;;;;;;;1.40;1.00;;;20.10;50.00;;;;;;5056381;28;20097;-85
2023/09/23 12:10:35;;;;;;;1.17;1.00;;;20.10;50.20;;;;;;5050438;28;20571;-86
2023/09/23 12:13:05;;;;;;;1.60;1.02;;;20.20;49.80;;;;;;5071393;28;20033;-86
2023/09/23 12:15:37;;;;;;;1.42;1.02;;;20.10;50.30;;;;;;5055409;28;20162;-89
2023/09/23 12:18:03;;;;;;;1.48;1.38;;;20.10;49.80;;;;;;5060440;28;20035;-89
2023/09/23 12:20:28;;;;;;;1.60;1.50;;;20.20;50.20;;;;;;5057302;28;20039;-89
2023/09/23 12:22:57;;;;;;;1.55;1.20;;;20.10;50.40;;;;;;5054409;28;20033;-87
2023/09/23 12:25:22;;;;;;;1.73;1.15;;;20.10;50.10;;;;;;5056157;28;20176;-85
2023/09/23 12:27:48;;;;;;;1.42;1.17;;;20.10;50.50;;;;;;5058927;28;20497;-94
2023/09/23 12:30:17;;;;;;;1.30;1.20;;;20.10;50.40;;;;;;5059469;28;20040;-93
2023/09/23 12:32:43;;;;;;;1.55;1.40;;;20.20;50.70;;;;;;5059157;28;20037;-91
2023/09/23 12:35:09;;;;;;;1.48;1.38;;;20.20;50.70;;;;;;5054782;28;20040;-92
2023/09/23 12:37:35;;;;;;;1.85;1.75;;;20.10;51.30;;;;;;5064276;28;20044;-93
2023/09/23 12:40:01;;;;;;;1.80;1.25;;;20.20;50.60;;;;;;5064251;28;20394;-91
2023/09/23 12:42:26;;;;;;;1.85;1.20;;;20.20;50.60;;;;;;5061097;28;20079;-92
2023/09/23 12:44:52;;;;;;;2.42;1.10;;;20.20;50.90;;;;;;5063939;28;20052;-94
2023/09/23 12:47:17;;;;;;;1.10;1.00;;;20.20;50.70;;;;;;5069219;28;20033;-92